Time;durP1;ratioP1;P1;durP2;ratioP2;P2;SDS_P1;SDS_P2;PMS_P1;PMS_P2;Temp;Humidity;BMP_temperature;BMP_pressure;BME280_temperature;BME280_humidity;BME280_pressure;Samples;Min_cycle;Max_cycle;Signal;HPM_P1;HPM_P2
2021/11/10 00:01:35;;;;;;;;;;;;;;;-142.75;100.00;78186.75;5010118;28;20037;-67
2021/11/10 00:04:00;;;;;;;28.40;10.70;;;;;;;-142.75;100.00;78192.66;5010249;28;19913;-67
2021/11/10 00:06:26;;;;;;;35.30;11.73;;;;;;;-142.75;100.00;78190.69;5010416;28;20057;-67
2021/11/10 00:08:51;;;;;;;54.60;16.65;;;;;;;-142.75;100.00;78176.88;5010285;28;20503;-67
2021/11/10 00:11:16;;;;;;;34.33;11.38;;;;;;;-142.75;100.00;78170.97;5009779;28;20546;-67
2021/11/10 00:13:42;;;;;;;36.28;11.55;;;;;;;-142.75;100.00;78157.19;5010371;28;20383;-67
2021/11/10 00:16:07;;;;;;;33.35;9.82;;;;;;;-142.75;100.00;78167.03;5010232;28;20366;-67
2021/11/10 00:18:32;;;;;;;52.40;14.95;;;;;;;-142.75;100.00;78145.38;5010086;28;20049;-67
2021/11/10 00:20:58;;;;;;;31.97;11.07;;;;;;;-142.75;100.00;78141.44;5021110;28;20052;-67
2021/11/10 00:23:23;;;;;;;29.33;11.18;;;;;;;-142.75;100.00;78137.50;5029422;28;20345;-67
2021/11/10 00:25:49;;;;;;;37.15;12.70;;;;;;;-142.75;100.00;78157.19;5029707;28;20065;-67
2021/11/10 00:28:15;;;;;;;41.05;10.57;;;;;;;-142.75;100.00;78141.44;5029996;28;20110;-67
2021/11/10 00:30:40;;;;;;;30.83;11.50;;;;;;;-142.75;100.00;78143.41;5011661;28;20490;-66
2021/11/10 00:33:06;;;;;;;36.78;12.65;;;;;;;-142.75;100.00;78149.31;5029219;28;20051;-67
2021/11/10 00:35:31;;;;;;;41.22;13.02;;;;;;;-142.75;100.00;78163.09;5029367;28;20032;-66
2021/11/10 00:37:56;;;;;;;45.65;14.45;;;;;;;-142.75;100.00;78161.13;5029424;28;20056;-67
2021/11/10 00:40:22;;;;;;;37.80;11.20;;;;;;;-142.75;100.00;78165.06;5028564;28;20064;-66
2021/11/10 00:42:47;;;;;;;37.33;12.90;;;;;;;-142.75;100.00;78147.34;5029456;28;20034;-66
2021/11/10 00:45:13;;;;;;;34.70;11.15;;;;;;;-142.75;100.00;78157.19;5029088;28;20030;-66
2021/11/10 00:47:38;;;;;;;34.80;11.23;;;;;;;-142.75;100.00;78133.56;5029198;28;20035;-66
2021/11/10 00:50:05;;;;;;;37.30;11.95;;;;;;;-142.75;100.00;78143.41;5019170;28;20030;-66
2021/11/10 00:52:31;;;;;;;27.35;11.45;;;;;;;-142.75;100.00;78133.56;5009254;28;20113;-66
2021/11/10 00:54:56;;;;;;;37.60;13.70;;;;;;;-142.75;100.00;78121.75;5009442;28;20109;-66
2021/11/10 00:57:22;;;;;;;38.92;13.05;;;;;;;-142.75;100.00;78113.88;4991787;28;20112;-66
2021/11/10 00:59:47;;;;;;;35.75;11.43;;;;;;;-142.75;100.00;78113.88;5009657;28;20514;-67
2021/11/10 01:02:13;;;;;;;38.67;12.55;;;;;;;-142.75;100.00;78123.72;5028644;28;20037;-66
2021/11/10 01:04:38;;;;;;;36.50;12.60;;;;;;;-142.75;100.00;78129.63;5028927;28;20025;-66
2021/11/10 01:07:04;;;;;;;30.98;12.07;;;;;;;-142.75;100.00;78111.91;5028880;28;20032;-66
2021/11/10 01:09:30;;;;;;;;;;;;;;;-142.75;100.00;78100.09;5029461;28;20379;-66
2021/11/10 01:11:56;;;;;;;37.75;12.50;;;;;;;-142.75;100.00;78125.69;5010311;28;20298;-66
2021/11/10 01:14:21;;;;;;;41.05;13.10;;;;;;;-142.75;100.00;78113.88;5028607;28;20040;-66
2021/11/10 01:16:47;;;;;;;42.55;12.57;;;;;;;-142.75;100.00;78113.88;5028874;28;20087;-66
2021/11/10 01:19:13;;;;;;;36.65;12.48;;;;;;;-142.75;100.00;78121.75;5028403;28;20061;-66
2021/11/10 01:21:39;;;;;;;38.70;11.55;;;;;;;-142.75;100.00;78096.16;5027782;28;20029;-66
2021/11/10 01:24:05;;;;;;;37.72;11.95;;;;;;;-142.75;100.00;78084.34;5028453;28;20087;-66
2021/11/10 01:26:30;;;;;;;;;;;;;;;-142.75;100.00;78080.41;5028850;28;20459;-66
2021/11/10 01:28:56;;;;;;;38.30;10.80;;;;;;;-142.75;100.00;78086.31;5029193;28;19960;-66
2021/11/10 01:31:21;;;;;;;25.58;10.65;;;;;;;-142.75;100.00;78086.31;5009978;28;20518;-67
2021/11/10 01:33:46;;;;;;;36.28;11.23;;;;;;;-142.75;100.00;78076.47;5028656;28;20553;-67
2021/11/10 01:36:13;;;;;;;29.95;10.60;;;;;;;-142.75;100.00;78058.72;5010446;28;20025;-66
2021/11/10 01:38:38;;;;;;;30.67;10.85;;;;;;;-142.75;100.00;78060.72;5028329;28;20021;-66
2021/11/10 01:41:04;;;;;;;35.60;10.97;;;;;;;-142.75;100.00;78060.72;5027656;28;20025;-66
2021/11/10 01:43:30;;;;;;;31.20;10.90;;;;;;;-142.75;100.00;78052.81;5020895;28;20288;-66
2021/11/10 01:45:57;;;;;;;35.17;11.00;;;;;;;-142.75;100.00;78054.81;5008642;28;20443;-67
2021/11/10 01:48:23;;;;;;;32.35;11.73;;;;;;;-142.75;100.00;78044.94;4991003;28;20025;-66
2021/11/10 01:50:48;;;;;;;;;;;;;;;-142.75;100.00;78052.81;5007872;28;20033;-66
2021/11/10 01:53:14;;;;;;;27.50;10.70;;;;;;;-142.75;100.00;78039.03;5008576;28;19914;-66
2021/11/10 01:55:39;;;;;;;33.72;10.52;;;;;;;-142.75;100.00;78044.94;5008577;28;20036;-66
2021/11/10 01:58:05;;;;;;;33.13;11.63;;;;;;;-142.75;100.00;78021.31;5008545;28;21573;-66
2021/11/10 02:00:35;;;;;;;40.40;11.82;;;;;;;-142.75;100.00;78029.19;5008321;28;20033;-66
2021/11/10 02:03:01;;;;;;;39.22;11.48;;;;;;;-142.75;100.00;78064.66;5008225;28;20014;-66
2021/11/10 02:05:27;;;;;;;33.72;11.52;;;;;;;-142.75;100.00;78068.59;5008320;28;20117;-66
2021/11/10 02:07:52;;;;;;;28.52;10.23;;;;;;;-142.75;100.00;78100.09;5008305;28;20101;-66
2021/11/10 02:10:20;;;;;;;31.55;11.38;;;;;;;-142.75;100.00;78125.69;4990294;28;20403;-66
2021/11/10 02:12:47;;;;;;;32.50;10.27;;;;;;;-142.75;100.00;78129.63;5008511;28;20073;-66
2021/11/10 02:15:17;;;;;;;38.60;11.93;;;;;;;-142.75;100.00;78147.34;5008179;28;20030;-66
2021/11/10 02:17:49;;;;;;;35.97;12.85;;;;;;;-142.75;100.00;78170.97;5019873;28;20024;-66
2021/11/10 02:20:15;;;;;;;32.88;11.27;;;;;;;-142.75;100.00;78180.81;5027387;28;20168;-66
2021/11/10 02:22:40;;;;;;;34.28;11.77;;;;;;;-142.75;100.00;78210.38;5027643;28;20025;-66
2021/11/10 02:25:08;;;;;;;36.90;11.85;;;;;;;-142.75;100.00;78218.25;5027781;28;20052;-66
2021/11/10 02:27:35;;;;;;;32.58;11.07;;;;;;;-142.75;100.00;78226.13;5006924;28;20092;-66
2021/11/10 02:30:20;;;;;;;39.65;11.77;;;;;;;-142.75;100.00;78226.13;5008039;28;20036;-66
2021/11/10 02:32:52;;;;;;;42.47;13.63;;;;;;;-142.75;100.00;78228.09;5008267;28;20030;-66
2021/11/10 02:35:20;;;;;;;37.33;12.63;;;;;;;-142.75;100.00;78218.25;5008513;28;20037;-66
2021/11/10 02:37:50;;;;;;;39.13;13.70;;;;;;;-142.75;100.00;78202.50;5008384;28;20153;-66
2021/11/10 02:40:15;;;;;;;51.13;15.52;;;;;;;-142.75;100.00;78196.59;5007251;28;20407;-66
2021/11/10 02:42:41;;;;;;;42.55;14.85;;;;;;;-142.75;100.00;78196.59;5008347;28;20025;-66
2021/11/10 02:45:07;;;;;;;34.95;13.38;;;;;;;-142.75;100.00;78190.69;5027689;28;20040;-66
2021/11/10 02:47:34;;;;;;;33.92;12.60;;;;;;;-142.75;100.00;78180.81;5027537;28;20455;-66
2021/11/10 02:49:59;;;;;;;35.60;11.85;;;;;;;-142.75;100.00;78170.97;5005935;28;20044;-66
2021/11/10 02:52:24;;;;;;;35.00;11.77;;;;;;;-142.75;100.00;78174.91;5008199;28;20635;-66
2021/11/10 02:54:53;;;;;;;37.22;11.68;;;;;;;-142.75;100.00;78172.94;4990170;28;20025;-66
2021/11/10 02:57:19;;;;;;;30.55;10.95;;;;;;;-142.75;100.00;78163.09;5008065;28;20030;-66
2021/11/10 02:59:45;;;;;;;;;;;;;;;-142.75;100.00;78170.97;5008523;28;20018;-66
2021/11/10 03:02:11;;;;;;;17.47;7.63;;;;;;;-142.75;100.00;78188.72;4990008;28;19913;-66
2021/11/10 03:04:42;;;;;;;28.92;10.15;;;;;;;-142.75;100.00;78178.84;5010259;28;20028;-66
2021/11/10 03:07:08;;;;;;;33.90;10.82;;;;;;;-142.75;100.00;78163.09;5013304;28;20041;-66
2021/11/10 03:09:35;;;;;;;31.52;9.98;;;;;;;-142.75;100.00;78155.22;5013188;28;20028;-66
2021/11/10 03:12:02;;;;;;;32.45;10.23;;;;;;;-142.75;100.00;78143.41;5030280;28;20052;-66
2021/11/10 03:14:30;;;;;;;31.48;10.48;;;;;;;-142.75;100.00;78139.47;5030960;28;20017;-66
2021/11/10 03:16:56;;;;;;;29.33;10.27;;;;;;;-142.75;100.00;78133.56;5031145;28;20390;-66
2021/11/10 03:19:21;;;;;;;;;;;;;;;-142.75;100.00;78129.63;5031306;28;20032;-66
2021/11/10 03:21:47;;;;;;;26.65;10.23;;;;;;;-142.75;100.00;78127.66;5030432;28;19913;-66
2021/11/10 03:24:14;;;;;;;31.92;11.40;;;;;;;-142.75;100.00;78131.59;5030832;28;20039;-67
2021/11/10 03:26:40;;;;;;;33.90;10.80;;;;;;;-142.75;100.00;78131.59;5030570;28;20463;-66
2021/11/10 03:29:05;;;;;;;39.28;10.98;;;;;;;-142.75;100.00;78137.50;5031229;28;20105;-66
2021/11/10 03:31:33;;;;;;;28.00;9.85;;;;;;;-142.75;100.00;78149.31;5029840;28;20057;-66
2021/11/10 03:33:59;;;;;;;28.73;9.00;;;;;;;-142.75;100.00;78149.31;5030547;28;20068;-66
2021/11/10 03:36:25;;;;;;;;;;;;;;;-142.75;100.00;78153.25;5016465;28;20079;-66
2021/11/10 03:38:50;;;;;;;30.95;9.52;;;;;;;-142.75;100.00;78153.25;5010812;28;20326;-66
2021/11/10 03:41:15;;;;;;;29.70;8.38;;;;;;;-142.75;100.00;78157.19;5010155;28;20388;-66
2021/11/10 03:43:41;;;;;;;29.00;9.77;;;;;;;-142.75;100.00;78161.13;5010716;28;20538;-66
2021/11/10 03:46:07;;;;;;;27.60;9.48;;;;;;;-142.75;100.00;78155.22;4993075;28;20026;-66
2021/11/10 03:48:32;;;;;;;26.57;8.60;;;;;;;-142.75;100.00;78167.03;5010722;28;20487;-66
2021/11/10 03:50:58;;;;;;;25.45;8.93;;;;;;;-142.75;100.00;78178.84;5009747;28;20276;-66
2021/11/10 03:53:23;;;;;;;28.38;9.57;;;;;;;-142.75;100.00;78190.69;5024935;28;20120;-65
2021/11/10 03:55:48;;;;;;;28.35;9.15;;;;;;;-142.75;100.00;78178.84;5030189;28;20437;-67
2021/11/10 03:58:14;;;;;;;29.85;9.30;;;;;;;-142.75;100.00;78178.84;5030513;28;20112;-66
2021/11/10 04:00:40;;;;;;;31.15;9.80;;;;;;;-142.75;100.00;78172.94;5030110;28;20033;-66
2021/11/10 04:03:05;;;;;;;24.85;9.63;;;;;;;-142.75;100.00;78180.81;5029944;28;20395;-66
2021/11/10 04:05:30;;;;;;;34.25;10.70;;;;;;;-142.75;100.00;78169.00;5030058;28;20029;-66
2021/11/10 04:07:56;;;;;;;27.48;9.48;;;;;;;-142.75;100.00;78159.16;5029779;28;20033;-66
2021/11/10 04:10:22;;;;;;;31.80;8.90;;;;;;;-142.75;100.00;78170.97;5015032;28;20053;-66
2021/11/10 04:12:47;;;;;;;;;;;;;;;-142.75;100.00;78167.03;5010939;28;20420;-66
2021/11/10 04:15:13;;;;;;;29.20;9.97;;;;;;;-142.75;100.00;78167.03;5009899;28;19921;-66
2021/11/10 04:17:39;;;;;;;21.45;8.90;;;;;;;-142.75;100.00;78186.75;5010054;28;20941;-66
2021/11/10 04:20:05;;;;;;;26.02;10.25;;;;;;;-142.75;100.00;78170.97;5009375;28;20032;-66
2021/11/10 04:22:30;;;;;;;;;;;;;;;-142.75;100.00;78184.78;4992606;28;20521;-66
2021/11/10 04:24:55;;;;;;;39.10;10.35;;;;;;;-142.75;100.00;78200.53;5010010;28;19926;-66
2021/11/10 04:27:21;;;;;;;25.35;10.20;;;;;;;-142.75;100.00;78216.28;5009797;28;20130;-66
2021/11/10 04:29:47;;;;;;;28.88;10.25;;;;;;;-142.75;100.00;78228.09;5010415;28;20045;-67
2021/11/10 04:32:13;;;;;;;30.25;11.13;;;;;;;-142.75;100.00;78214.31;5035976;22;20034;-69
2021/11/10 04:34:38;;;;;;;32.22;9.63;;;;;;;-142.75;100.00;78232.03;5046420;28;20495;-67
2021/11/10 04:37:05;;;;;;;30.95;10.25;;;;;;;-142.75;100.00;78220.22;5049402;28;20064;-68
2021/11/10 04:39:30;;;;;;;30.52;10.32;;;;;;;-142.75;100.00;78232.03;5044004;28;20025;-69
2021/11/10 04:41:56;;;;;;;30.92;11.57;;;;;;;-142.75;100.00;78224.16;5028642;28;20088;-68
2021/11/10 04:44:21;;;;;;;29.17;10.40;;;;;;;-142.75;100.00;78228.09;5011556;28;20040;-69
2021/11/10 04:46:47;;;;;;;26.98;10.55;;;;;;;-142.75;100.00;78218.25;5041039;28;20018;-70
2021/11/10 04:49:14;;;;;;;32.67;10.68;;;;;;;-142.75;100.00;78224.16;5038927;28;20029;-69
2021/11/10 04:51:40;;;;;;;34.40;11.73;;;;;;;-142.75;100.00;78224.16;5029367;28;20075;-69
2021/11/10 04:54:12;;;;;;;40.95;10.70;;;;;;;-142.75;100.00;78224.16;5029151;28;20380;-69
2021/11/10 04:56:38;;;;;;;31.48;11.20;;;;;;;-142.75;100.00;78232.03;5029254;28;20025;-69
2021/11/10 04:59:04;;;;;;;31.42;11.27;;;;;;;-142.75;100.00;78235.97;5025208;28;20471;-69
2021/11/10 05:01:30;;;;;;;29.25;10.50;;;;;;;-142.75;100.00;78230.06;5045693;28;20052;-69
2021/11/10 05:03:56;;;;;;;29.50;11.73;;;;;;;-142.75;100.00;78228.09;5032363;28;20029;-70
2021/11/10 05:06:22;;;;;;;;;;;;;;;-142.75;100.00;78214.31;5049147;28;20087;-69
2021/11/10 05:08:48;;;;;;;40.05;12.25;;;;;;;-142.75;100.00;78212.34;5048904;28;19951;-71
2021/11/10 05:11:14;;;;;;;;;;;;;;;-142.75;100.00;78232.03;5030888;28;20548;-70
2021/11/10 05:13:39;;;;;;;41.13;12.60;;;;;;;-142.75;100.00;78216.28;5030790;28;19916;-69
2021/11/10 05:16:05;;;;;;;35.25;12.23;;;;;;;-142.75;100.00;78218.25;5037516;28;20413;-72
2021/11/10 05:18:31;;;;;;;32.43;12.77;;;;;;;-142.75;100.00;78222.19;5009886;28;20029;-68
2021/11/10 05:20:56;;;;;;;38.22;13.52;;;;;;;-142.75;100.00;78245.81;5012573;28;20032;-69
2021/11/10 05:23:22;;;;;;;41.83;12.93;;;;;;;-142.75;100.00;78261.56;5047037;28;20037;-68
2021/11/10 05:25:47;;;;;;;28.85;12.02;;;;;;;-142.75;100.00;78263.53;5024717;28;20025;-68
2021/11/10 05:28:12;;;;;;;37.75;12.25;;;;;;;-142.75;100.00;78271.41;5015492;28;20021;-71
2021/11/10 05:30:38;;;;;;;35.22;12.25;;;;;;;-142.75;100.00;78277.31;5048510;28;20036;-68
2021/11/10 05:33:04;;;;;;;38.55;12.68;;;;;;;-142.75;100.00;78269.44;5022121;28;20021;-69
2021/11/10 05:35:30;;;;;;;26.02;12.30;;;;;;;-142.75;100.00;78275.34;5023697;28;20379;-69
2021/11/10 05:37:55;;;;;;;37.25;12.00;;;;;;;-142.75;100.00;78271.41;5036344;28;20108;-71
2021/11/10 05:40:21;;;;;;;31.50;12.00;;;;;;;-142.75;100.00;78271.41;5027733;28;20021;-67
2021/11/10 05:42:46;;;;;;;30.17;12.07;;;;;;;-142.75;100.00;78273.38;5028356;28;20052;-68
2021/11/10 05:45:12;;;;;;;27.85;11.73;;;;;;;-142.75;100.00;78275.34;5028371;28;20048;-71
2021/11/10 05:47:37;;;;;;;35.30;12.13;;;;;;;-142.75;100.00;78283.22;5028298;28;20087;-69
2021/11/10 05:50:05;;;;;;;36.72;12.55;;;;;;;-142.75;100.00;78283.22;5009639;28;20116;-69
2021/11/10 05:52:31;;;;;;;27.57;11.47;;;;;;;-142.75;100.00;78299.00;5028057;28;20029;-68
2021/11/10 05:54:57;;;;;;;39.33;11.52;;;;;;;-142.75;100.00;78279.28;5028311;28;20051;-69
2021/11/10 05:57:23;;;;;;;33.08;11.20;;;;;;;-142.75;100.00;78297.00;5023978;28;20118;-70
2021/11/10 05:59:49;;;;;;;;;;;;;;;-142.75;100.00;78299.00;5035160;28;20103;-68
2021/11/10 06:02:14;;;;;;;29.93;10.93;;;;;;;-142.75;100.00;78312.78;5047512;28;20433;-70
2021/11/10 06:04:42;;;;;;;30.45;11.05;;;;;;;-142.75;100.00;78304.91;5046992;28;20021;-69
2021/11/10 06:07:07;;;;;;;32.23;10.90;;;;;;;-142.75;100.00;78304.91;5035935;28;20495;-72
2021/11/10 06:09:32;;;;;;;32.45;11.63;;;;;;;-142.75;100.00;78304.91;5037356;28;20025;-67
2021/11/10 06:11:58;;;;;;;29.83;11.65;;;;;;;-142.75;100.00;78300.97;5028383;28;20017;-69
2021/11/10 06:14:23;;;;;;;29.90;11.63;;;;;;;-142.75;100.00;78320.66;5017530;28;20068;-69
2021/11/10 06:16:50;;;;;;;35.80;13.63;;;;;;;-142.75;100.00;78318.69;5027266;28;20272;-71
2021/11/10 06:19:15;;;;;;;44.00;15.30;;;;;;;-142.75;100.00;78332.47;5027431;28;20545;-69
2021/11/10 06:21:41;;;;;;;45.70;14.25;;;;;;;-142.75;100.00;78324.59;5026285;28;20029;-69
2021/11/10 06:24:06;;;;;;;37.75;14.65;;;;;;;-142.75;100.00;78328.53;5037284;28;20029;-68
2021/11/10 06:26:31;;;;;;;41.95;14.63;;;;;;;-142.75;100.00;78320.66;5047260;28;20033;-68
2021/11/10 06:28:57;;;;;;;46.65;14.15;;;;;;;-142.75;100.00;78318.69;5043304;28;20036;-72
2021/11/10 06:31:22;;;;;;;38.45;14.15;;;;;;;-142.75;100.00;78328.53;5009373;28;20037;-69
2021/11/10 06:33:49;;;;;;;38.03;14.50;;;;;;;-142.75;100.00;78330.50;5026960;28;20021;-70
2021/11/10 06:36:14;;;;;;;41.53;15.13;;;;;;;-142.75;100.00;78326.56;5027363;28;20471;-69
2021/11/10 06:38:40;;;;;;;37.53;13.95;;;;;;;-142.75;100.00;78322.63;5021926;28;20087;-70
2021/11/10 06:41:05;;;;;;;35.85;13.75;;;;;;;-142.75;100.00;78318.69;5029681;28;20026;-68
2021/11/10 06:43:30;;;;;;;35.38;13.30;;;;;;;-142.75;100.00;78318.69;5030255;28;20483;-69
2021/11/10 06:45:56;;;;;;;37.80;14.70;;;;;;;-142.75;100.00;78314.75;5016765;28;20483;-69
2021/11/10 06:48:21;;;;;;;40.92;16.42;;;;;;;-142.75;100.00;78314.75;5051335;28;20120;-68
2021/11/10 06:50:47;;;;;;;33.88;12.68;;;;;;;-142.75;100.00;78314.75;5050951;28;20513;-69
2021/11/10 06:53:14;;;;;;;40.80;14.75;;;;;;;-142.75;100.00;78316.72;5033913;28;20082;-70
2021/11/10 06:55:39;;;;;;;37.08;13.90;;;;;;;-142.75;100.00;78314.75;5042258;28;20032;-70
2021/11/10 06:58:05;;;;;;;40.53;14.05;;;;;;;-142.75;100.00;78326.56;5036097;28;20025;-69
2021/11/10 07:00:31;;;;;;;41.38;14.10;;;;;;;-142.75;100.00;78334.44;5014190;28;20120;-69
2021/11/10 07:02:57;;;;;;;39.75;15.18;;;;;;;-142.75;100.00;78328.53;5025178;28;20025;-69
2021/11/10 07:05:22;;;;;;;;;;;;;;;-142.75;100.00;78320.66;5032230;28;20027;-69
2021/11/10 07:07:47;;;;;;;43.23;15.83;;;;;;;-142.75;100.00;78330.50;5040583;28;19931;-69
2021/11/10 07:10:13;;;;;;;39.97;14.68;;;;;;;-142.75;100.00;78326.56;5032674;28;20025;-69
2021/11/10 07:12:38;;;;;;;47.38;15.55;;;;;;;-142.75;100.00;78320.66;5047470;28;20028;-70
2021/11/10 07:15:04;;;;;;;44.58;15.60;;;;;;;-142.75;100.00;78330.50;5047478;28;20043;-69
2021/11/10 07:17:29;;;;;;;43.70;16.65;;;;;;;-142.75;100.00;78365.94;5044717;28;20029;-69
2021/11/10 07:19:55;;;;;;;47.30;16.50;;;;;;;-142.75;100.00;78385.63;5033015;28;20078;-69
2021/11/10 07:22:20;;;;;;;45.38;17.02;;;;;;;-142.75;100.00;78389.56;5051172;28;20271;-71
2021/11/10 07:24:46;;;;;;;39.33;17.08;;;;;;;-142.75;100.00;78401.38;5048497;28;20039;-68
2021/11/10 07:27:12;;;;;;;37.55;16.52;;;;;;;-142.75;100.00;78393.50;5033880;28;20414;-69
2021/11/10 07:29:38;;;;;;;45.05;16.27;;;;;;;-142.75;100.00;78377.75;5026214;28;20114;-68
2021/11/10 07:32:04;;;;;;;42.40;16.40;;;;;;;-142.75;100.00;78362.00;5047543;28;20103;-69
2021/11/10 07:34:29;;;;;;;42.10;17.27;;;;;;;-142.75;100.00;78362.00;5030808;28;20071;-70
2021/11/10 07:36:55;;;;;;;39.10;15.37;;;;;;;-142.75;100.00;78352.16;5030554;28;20025;-68
2021/11/10 07:39:20;;;;;;;43.45;15.45;;;;;;;-142.75;100.00;78326.56;5032346;28;20279;-68
2021/11/10 07:41:48;;;;;;;39.95;14.88;;;;;;;-142.75;100.00;78314.75;5049439;28;20025;-68
2021/11/10 07:44:14;;;;;;;48.78;15.38;;;;;;;-142.75;100.00;78310.81;5019493;28;20514;-69
2021/11/10 07:46:41;;;;;;;;;;;;;;;-142.75;100.00;78297.00;5026622;28;20024;-69
2021/11/10 07:49:06;;;;;;;46.42;15.23;;;;;;;-142.75;100.00;78299.00;5030942;28;19992;-69
2021/11/10 07:51:31;;;;;;;42.38;14.50;;;;;;;-142.75;100.00;78314.75;5040993;28;20156;-69
2021/11/10 07:53:57;;;;;;;40.58;13.95;;;;;;;-142.75;100.00;78320.66;5048889;28;20371;-69
2021/11/10 07:56:23;;;;;;;49.42;15.07;;;;;;;-142.75;100.00;78346.25;5049506;28;20033;-70
2021/11/10 07:58:48;;;;;;;36.47;14.45;;;;;;;-142.75;100.00;78369.88;5040878;28;20029;-71
2021/11/10 08:01:14;;;;;;;42.35;14.05;;;;;;;-142.75;100.00;78377.75;5035637;28;20470;-69
2021/11/10 08:03:40;;;;;;;37.88;14.63;;;;;;;-142.75;100.00;78375.78;5031532;28;20033;-69
2021/11/10 08:06:05;;;;;;;47.67;16.27;;;;;;;-142.75;100.00;78373.81;5043855;28;20075;-68
2021/11/10 08:08:31;;;;;;;49.00;15.93;;;;;;;-142.75;100.00;78346.25;5023193;28;20036;-68
2021/11/10 08:10:59;;;;;;;50.72;16.10;;;;;;;-142.75;100.00;78338.38;5038669;28;20033;-69
2021/11/10 08:13:26;;;;;;;38.43;14.63;;;;;;;-142.75;100.00;78358.06;5029419;28;20029;-69
2021/11/10 08:15:56;;;;;;;45.13;15.70;;;;;;;-142.75;100.00;78350.19;5040557;28;20032;-69
2021/11/10 08:18:25;;;;;;;37.60;15.83;;;;;;;-142.75;100.00;78334.44;5020085;28;20035;-68
2021/11/10 08:20:50;;;;;;;42.30;15.82;;;;;;;-142.75;100.00;78334.44;5038369;28;20033;-69
2021/11/10 08:23:20;;;;;;;42.78;15.70;;;;;;;-142.75;100.00;78334.44;5049199;28;20031;-69
2021/11/10 08:25:50;;;;;;;39.45;15.18;;;;;;;-142.75;100.00;78338.38;5046715;28;20021;-68
2021/11/10 08:28:17;;;;;;;42.47;14.95;;;;;;;-142.75;100.00;78334.44;5028514;28;20067;-70
2021/11/10 08:30:42;;;;;;;40.40;16.17;;;;;;;-142.75;100.00;78318.69;5041626;28;20017;-69
2021/11/10 08:33:08;;;;;;;36.90;15.15;;;;;;;-142.75;100.00;78320.66;5048252;28;20119;-68
2021/11/10 08:35:33;;;;;;;35.83;14.60;;;;;;;-142.75;100.00;78318.69;5047052;28;20024;-68
2021/11/10 08:37:58;;;;;;;39.38;16.38;;;;;;;-142.75;100.00;78338.38;5011233;28;20030;-69
2021/11/10 08:40:24;;;;;;;42.17;17.95;;;;;;;-142.75;100.00;78322.63;5043691;28;20052;-67
2021/11/10 08:42:51;;;;;;;41.17;16.63;;;;;;;-142.75;100.00;78310.81;5028609;28;20024;-67
2021/11/10 08:45:19;;;;;;;38.77;16.40;;;;;;;-142.75;100.00;78287.16;5023770;28;20031;-67
2021/11/10 08:47:50;;;;;;;47.47;18.38;;;;;;;-142.75;100.00;78297.00;5030371;28;20100;-68
2021/11/10 08:50:19;;;;;;;48.73;18.73;;;;;;;-142.75;100.00;78287.16;5031158;28;20118;-68
2021/11/10 08:52:46;;;;;;;47.87;19.43;;;;;;;-142.75;100.00;78279.28;5012515;28;20028;-67
2021/11/10 08:55:13;;;;;;;47.17;18.40;;;;;;;-142.75;100.00;78265.50;5030340;28;20029;-68
2021/11/10 08:57:39;;;;;;;45.87;18.10;;;;;;;-142.75;100.00;78247.78;5035089;28;20029;-68
2021/11/10 09:00:09;;;;;;;44.85;17.23;;;;;;;-142.75;100.00;78251.72;5043050;28;20025;-67
2021/11/10 09:02:35;;;;;;;46.28;16.65;;;;;;;-142.75;100.00;78263.53;5029115;28;20025;-68
2021/11/10 09:05:01;;;;;;;;;;;;;;;-142.75;100.00;78255.66;5032957;28;20013;-67
2021/11/10 09:07:26;;;;;;;39.17;15.48;;;;;;;-142.75;100.00;78251.72;5013112;28;19923;-69
2021/11/10 09:09:52;;;;;;;33.05;14.35;;;;;;;-142.75;100.00;78247.78;5045622;28;20040;-66
2021/11/10 09:12:17;;;;;;;38.58;14.40;;;;;;;-142.75;100.00;78235.97;5034097;28;20033;-67
2021/11/10 09:14:43;;;;;;;35.47;14.88;;;;;;;-142.75;100.00;78224.16;5029940;28;20021;-69
2021/11/10 09:17:10;;;;;;;35.20;14.27;;;;;;;-142.75;100.00;78228.09;5046371;28;20032;-67
2021/11/10 09:19:35;;;;;;;38.13;14.45;;;;;;;-142.75;100.00;78230.06;5047328;28;20021;-67
2021/11/10 09:22:01;;;;;;;41.50;15.00;;;;;;;-142.75;100.00;78216.28;5044586;28;20048;-67
2021/11/10 09:24:26;;;;;;;38.10;13.73;;;;;;;-142.75;100.00;78212.34;5028890;28;20068;-66
2021/11/10 09:26:51;;;;;;;32.50;13.35;;;;;;;-142.75;100.00;78216.28;5047571;28;20399;-68
2021/11/10 09:29:19;;;;;;;38.55;12.38;;;;;;;-142.75;99.95;78212.34;5047251;28;20436;-67
2021/11/10 09:31:44;;;;;;;39.58;12.55;;;;;;;-142.75;98.26;78210.38;5046118;28;20039;-69
2021/11/10 09:34:12;;;;;;;39.30;13.38;;;;;;;-142.75;99.22;78196.59;5046708;28;20025;-70
2021/11/10 09:36:46;;;;;;;30.15;11.90;;;;;;;-142.75;98.99;78178.84;5035131;28;20025;-68
2021/11/10 09:39:11;;;;;;;30.55;12.88;;;;;;;-142.75;98.81;78172.94;5035649;28;20124;-68
2021/11/10 09:41:38;;;;;;;31.35;12.88;;;;;;;-142.75;97.85;78165.06;5045873;28;20107;-67
2021/11/10 09:44:04;;;;;;;29.40;11.80;;;;;;;-142.75;96.81;78161.13;5043926;28;20084;-68
2021/11/10 09:46:31;;;;;;;38.97;12.85;;;;;;;-142.75;97.25;78141.44;5010360;28;20025;-68
2021/11/10 09:48:58;;;;;;;34.45;11.70;;;;;;;-142.75;97.49;78135.53;5018433;28;20495;-68
2021/11/10 09:51:23;;;;;;;28.02;11.68;;;;;;;-142.75;98.02;78129.63;5026088;28;20029;-68
2021/11/10 09:53:49;;;;;;;34.03;11.93;;;;;;;-142.75;98.88;78117.81;5026704;28;20025;-69
2021/11/10 09:56:14;;;;;;;29.15;11.93;;;;;;;-142.75;96.30;78111.91;5010038;28;20079;-69
2021/11/10 09:58:41;;;;;;;31.00;11.77;;;;;;;-142.75;96.29;78115.84;5028746;28;20104;-68
2021/11/10 10:01:08;;;;;;;27.23;11.15;;;;;;;-142.75;94.19;78111.91;5038719;28;20544;-68
2021/11/10 10:03:35;;;;;;;26.17;11.85;;;;;;;-142.75;94.09;78078.44;5026230;28;20087;-69
2021/11/10 10:06:01;;;;;;;38.60;11.95;;;;;;;-142.75;93.19;78088.28;5026609;28;20064;-68
2021/11/10 10:08:26;;;;;;;29.17;11.32;;;;;;;-142.75;93.31;78109.94;5042720;28;20064;-68
2021/11/10 10:10:52;;;;;;;28.05;11.68;;;;;;;-142.75;93.61;78125.69;5045536;28;20028;-69
2021/11/10 10:13:19;;;;;;;29.27;11.27;;;;;;;-142.75;93.94;78113.88;5029521;28;20040;-68
2021/11/10 10:15:45;;;;;;;30.75;12.25;;;;;;;-142.75;94.60;78106.00;5016528;28;20107;-68
2021/11/10 10:18:18;;;;;;;27.58;10.85;;;;;;;-142.75;94.22;78125.69;5014951;28;20013;-67
2021/11/10 10:20:45;;;;;;;29.92;11.48;;;;;;;-142.75;94.16;78121.75;5043514;28;20043;-67
2021/11/10 10:23:16;;;;;;;32.10;12.27;;;;;;;-142.75;94.53;78113.88;5015615;28;20036;-68
2021/11/10 10:25:47;;;;;;;29.73;11.93;;;;;;;-142.75;94.70;78102.06;5035194;28;20040;-68
2021/11/10 10:28:18;;;;;;;26.63;11.63;;;;;;;-142.75;96.02;78096.16;5025629;28;20383;-67
2021/11/10 10:30:47;;;;;;;28.92;11.40;;;;;;;-142.75;94.48;78092.22;5028220;28;20506;-70
2021/11/10 10:33:18;;;;;;;29.42;11.68;;;;;;;-142.75;94.70;78098.13;5044528;28;20090;-69
2021/11/10 10:35:57;;;;;;;30.58;11.40;;;;;;;-142.75;95.56;78092.22;5039141;28;20029;-68
2021/11/10 10:38:26;;;;;;;28.88;11.48;;;;;;;-142.75;96.71;78084.34;5042029;28;20040;-68
2021/11/10 10:40:54;;;;;;;27.30;11.02;;;;;;;-142.75;94.74;78066.63;5037172;28;20129;-68
2021/11/10 10:43:23;;;;;;;28.08;11.77;;;;;;;-142.75;94.12;78090.25;5031002;28;20036;-69
2021/11/10 10:45:52;;;;;;;24.02;11.18;;;;;;;-142.75;93.58;78082.38;5026330;28;20076;-68
2021/11/10 10:48:28;;;;;;;29.83;11.90;;;;;;;-142.75;95.50;78094.19;5034257;28;20033;-68
2021/11/10 10:50:57;;;;;;;28.27;11.52;;;;;;;-142.75;96.47;78102.06;5038436;28;20107;-69
2021/11/10 10:53:38;;;;;;;27.10;12.23;;;;;;;-142.75;96.48;78082.38;5010588;28;20072;-70
2021/11/10 10:56:16;;;;;;;30.25;11.88;;;;;;;-142.75;96.03;78066.63;5034561;28;20028;-69